createdAt,value
2022-08-17T00:01:51.708Z,80.81
2022-08-17T00:04:21.916Z,81.30
2022-08-17T00:06:50.844Z,80.78
2022-08-17T00:09:19.532Z,80.46
2022-08-17T00:12:34.714Z,80.26
2022-08-17T00:14:38.644Z,80.61
2022-08-17T00:17:07.211Z,80.41
2022-08-17T00:19:35.562Z,80.60
2022-08-17T00:22:33.948Z,81.30
2022-08-17T00:24:55.362Z,80.74
2022-08-17T00:27:24.454Z,80.85
2022-08-17T00:29:52.826Z,80.92
2022-08-17T00:33:12.397Z,80.92
2022-08-17T00:35:11.524Z,80.71
2022-08-17T00:37:40.580Z,80.47
2022-08-17T00:40:12.314Z,81.02
2022-08-17T00:42:41.750Z,80.59
2022-08-17T00:45:12.171Z,80.38
2022-08-17T00:48:28.984Z,80.36
2022-08-17T00:51:01.053Z,80.08
2022-08-17T00:53:31.886Z,80.18
2022-08-17T00:56:03.613Z,80.12
2022-08-17T00:58:36.037Z,80.21
2022-08-17T01:01:07.134Z,80.34
2022-08-17T01:03:37.609Z,79.92
2022-08-17T01:06:08.369Z,79.78
2022-08-17T01:08:39.069Z,80.03
2022-08-17T01:11:08.473Z,80.59
2022-08-17T01:13:43.121Z,81.56
2022-08-17T01:20:22.249Z,80.99
2022-08-17T01:22:50.795Z,81.41
2022-08-17T01:25:20.949Z,80.89
2022-08-17T01:27:50.104Z,80.55
2022-08-17T01:30:58.439Z,80.50
2022-08-17T01:33:11.666Z,80.10
2022-08-17T01:35:40.485Z,80.00
2022-08-17T01:38:09.726Z,80.80
2022-08-17T01:40:43.410Z,81.11
2022-08-17T01:43:20.210Z,81.64
2022-08-17T01:46:03.591Z,81.77
2022-08-17T01:48:35.354Z,80.85
2022-08-17T01:51:06.308Z,80.77
2022-08-17T01:54:02.682Z,81.10
2022-08-17T01:56:34.511Z,81.65
2022-08-17T01:59:03.210Z,81.73
2022-08-17T02:01:34.781Z,81.54
2022-08-17T02:04:05.667Z,81.52
2022-08-17T02:06:44.903Z,81.22
2022-08-17T02:09:29.855Z,81.38
2022-08-17T02:12:04.790Z,81.25
2022-08-17T02:14:51.727Z,81.03
2022-08-17T02:17:20.082Z,80.71
2022-08-17T02:19:48.520Z,81.15
2022-08-17T02:22:18.544Z,81.18
2022-08-17T02:24:59.568Z,81.00
2022-08-17T02:27:31.040Z,80.60
2022-08-17T02:29:59.485Z,80.76
2022-08-17T02:32:28.778Z,80.95
2022-08-17T02:34:58.639Z,81.45
2022-08-17T02:37:28.719Z,81.97
2022-08-17T02:40:14.034Z,81.91
2022-08-17T02:42:44.842Z,81.52
2022-08-17T02:45:15.390Z,81.75
2022-08-17T02:47:45.253Z,81.27
2022-08-17T02:50:16.976Z,81.21
2022-08-17T02:53:02.463Z,81.18
2022-08-17T02:55:35.557Z,81.19
2022-08-17T02:58:05.124Z,81.21
2022-08-17T03:01:03.608Z,81.32
2022-08-17T03:03:32.438Z,81.03
2022-08-17T03:06:01.552Z,81.07
2022-08-17T03:08:30.744Z,80.83
2022-08-17T03:10:59.970Z,81.03
2022-08-17T03:13:28.230Z,81.31
2022-08-17T03:15:56.992Z,81.02
2022-08-17T03:18:26.355Z,81.15
2022-08-17T03:20:57.773Z,81.45
2022-08-17T03:23:27.651Z,81.14
2022-08-17T03:25:58.921Z,81.45
2022-08-17T03:28:28.653Z,81.23
2022-08-17T03:30:57.010Z,80.95
2022-08-17T03:33:25.405Z,81.15
2022-08-17T03:35:53.814Z,81.11
2022-08-17T03:38:22.191Z,80.85
2022-08-17T03:40:56.488Z,81.25
2022-08-17T03:43:31.266Z,81.60
2022-08-17T03:46:27.724Z,81.56
2022-08-17T03:49:16.339Z,81.32
2022-08-17T03:52:03.397Z,81.44
2022-08-17T03:54:50.663Z,81.40
2022-08-17T03:57:19.500Z,81.86
2022-08-17T03:59:47.997Z,81.67
2022-08-17T04:02:22.066Z,81.20
2022-08-17T04:04:51.333Z,81.20
2022-08-17T04:07:25.592Z,80.78
2022-08-17T04:10:11.931Z,81.19
2022-08-17T04:12:50.347Z,81.03
2022-08-17T04:15:19.136Z,81.03
2022-08-17T04:17:47.770Z,81.08
2022-08-17T04:20:18.245Z,80.60
2022-08-17T04:23:04.226Z,80.55
2022-08-17T04:25:35.062Z,80.51
2022-08-17T04:28:05.143Z,81.06
2022-08-17T04:30:38.698Z,81.09
2022-08-17T04:33:14.345Z,81.56
2022-08-17T04:36:22.452Z,81.18
2022-08-17T04:38:50.887Z,81.85
2022-08-17T04:41:37.899Z,81.34
2022-08-17T04:44:12.092Z,81.68
2022-08-17T04:46:40.442Z,82.22
2022-08-17T04:49:11.230Z,81.83
2022-08-17T04:51:54.442Z,81.64
2022-08-17T04:54:25.280Z,81.27
2022-08-17T04:56:53.620Z,80.38
2022-08-17T04:59:22.760Z,80.13
2022-08-17T05:01:52.164Z,80.13
2022-08-17T05:08:22.374Z,80.18
2022-08-17T05:10:50.921Z,80.44
2022-08-17T05:13:27.017Z,79.61
2022-08-17T05:15:59.007Z,79.32
2022-08-17T05:18:28.809Z,78.92
2022-08-17T05:20:57.462Z,78.16
2022-08-17T05:23:35.004Z,78.20
2022-08-17T05:26:25.504Z,78.13
2022-08-17T05:28:59.836Z,78.11
2022-08-17T05:31:30.121Z,77.72
2022-08-17T05:33:59.230Z,77.55
2022-08-17T05:36:42.300Z,77.58
2022-08-17T05:39:56.917Z,77.58
2022-08-17T05:47:06.587Z,77.37
2022-08-17T05:54:17.860Z,77.65
2022-08-17T06:01:28.033Z,77.24
2022-08-17T06:04:02.558Z,77.04
2022-08-17T06:11:02.860Z,76.25
2022-08-17T06:17:59.336Z,75.69
2022-08-17T06:28:47.986Z,72.80
2022-08-17T06:33:28.988Z,69.37
2022-08-17T06:36:17.678Z,66.70
2022-08-17T06:43:19.334Z,60.84
2022-08-17T06:45:54.446Z,59.92
2022-08-17T06:48:59.514Z,60.60
2022-08-17T06:56:00.672Z,57.10
2022-08-17T06:58:31.625Z,55.88
2022-08-17T07:08:12.489Z,52.14
2022-08-17T07:23:48.543Z,52.39
2022-08-17T07:26:16.850Z,52.12
2022-08-17T07:28:45.566Z,52.32
2022-08-17T07:31:17.422Z,51.99
2022-08-17T07:38:26.869Z,51.16
2022-08-17T07:41:02.256Z,51.25
2022-08-17T07:43:52.726Z,52.01
2022-08-17T07:46:46.535Z,51.31
2022-08-17T07:49:14.786Z,52.06
2022-08-17T07:51:43.488Z,51.68
2022-08-17T07:55:22.451Z,52.00
2022-08-17T07:57:57.648Z,51.47
2022-08-17T08:01:08.515Z,50.56
2022-08-17T08:03:52.393Z,50.09
2022-08-17T08:06:24.862Z,49.46
2022-08-17T08:08:56.711Z,49.84
2022-08-17T08:11:31.050Z,49.41
2022-08-17T08:18:04.665Z,48.34
2022-08-17T08:21:20.332Z,48.38
2022-08-17T08:25:30.271Z,46.52
2022-08-17T08:32:28.219Z,42.30
2022-08-17T08:35:08.706Z,43.08
2022-08-17T08:47:27.319Z,40.72
2022-08-17T08:59:57.727Z,40.85
2022-08-17T09:08:31.198Z,40.45
2022-08-17T09:19:50.368Z,38.14
2022-08-17T09:22:31.789Z,37.14
2022-08-17T09:29:57.930Z,36.22
2022-08-17T09:46:11.884Z,38.42
2022-08-17T09:48:59.156Z,37.85
2022-08-17T09:57:30.682Z,38.52
2022-08-17T10:07:56.500Z,38.35
2022-08-17T10:10:52.474Z,37.75
2022-08-17T10:17:43.341Z,39.18
2022-08-17T10:25:24.820Z,38.02
2022-08-17T10:28:05.517Z,37.03
2022-08-17T10:42:50.350Z,34.95
2022-08-17T10:55:20.660Z,32.06
2022-08-17T11:07:02.316Z,32.13
2022-08-17T11:09:51.284Z,32.34
2022-08-17T11:25:55.715Z,32.79
2022-08-17T11:29:05.428Z,33.16
2022-08-17T11:32:48.807Z,32.57
2022-08-17T11:36:59.026Z,31.65
2022-08-17T11:44:13.696Z,32.65
2022-08-17T11:51:34.717Z,32.10
2022-08-17T11:58:40.219Z,31.72
2022-08-17T12:01:13.745Z,31.49
2022-08-17T12:04:38.561Z,32.05
2022-08-17T12:23:23.361Z,30.16
2022-08-17T12:30:32.508Z,29.59
2022-08-17T12:42:29.543Z,30.52
2022-08-17T12:45:39.977Z,30.37
2022-08-17T12:48:14.003Z,30.96
2022-08-17T12:50:58.846Z,30.39
2022-08-17T12:55:40.592Z,29.77
2022-08-17T13:04:29.717Z,31.03
2022-08-17T13:11:29.264Z,30.36
2022-08-17T13:15:34.960Z,29.90
2022-08-17T13:19:43.915Z,30.34
2022-08-17T13:23:19.777Z,30.83
2022-08-17T13:25:56.420Z,30.08
2022-08-17T13:28:35.478Z,29.81
2022-08-17T13:31:24.580Z,29.54
2022-08-17T13:33:53.026Z,30.13
2022-08-17T13:36:30.627Z,30.26
2022-08-17T13:43:09.626Z,30.25
2022-08-17T13:54:41.418Z,31.11
2022-08-17T14:01:46.569Z,31.32
2022-08-17T14:04:24.493Z,31.63
2022-08-17T14:08:06.406Z,31.95
2022-08-17T14:10:36.819Z,31.99
2022-08-17T14:13:06.510Z,32.37
2022-08-17T14:15:55.245Z,32.15
2022-08-17T14:18:35.726Z,32.56
2022-08-17T14:21:13.362Z,33.31
2022-08-17T14:28:11.116Z,31.71
2022-08-17T14:30:41.209Z,31.99
2022-08-17T14:33:10.064Z,32.74
2022-08-17T14:35:38.393Z,31.99
2022-08-17T14:38:06.746Z,32.24
2022-08-17T14:40:36.220Z,32.79
2022-08-17T14:43:04.655Z,33.10
2022-08-17T14:45:33.572Z,33.91
2022-08-17T14:48:07.855Z,34.62
2022-08-17T14:50:40.386Z,35.81
2022-08-17T14:53:11.683Z,36.83
2022-08-17T14:55:40.726Z,37.54
2022-08-17T14:58:09.554Z,37.75
2022-08-17T15:00:39.661Z,37.84
2022-08-17T15:03:08.043Z,37.58
2022-08-17T15:05:38.296Z,38.10
2022-08-17T15:08:07.283Z,38.84
2022-08-17T15:10:36.701Z,38.89
2022-08-17T15:13:10.948Z,39.36
2022-08-17T15:15:58.789Z,39.90
2022-08-17T15:18:59.042Z,39.83
2022-08-17T15:21:27.401Z,40.11
2022-08-17T15:23:55.792Z,40.08
2022-08-17T15:26:26.396Z,40.46
2022-08-17T15:28:56.329Z,40.60
2022-08-17T15:31:31.609Z,40.65
2022-08-17T15:34:00.878Z,40.73
2022-08-17T15:36:29.203Z,40.62
2022-08-17T15:38:59.165Z,40.73
2022-08-17T15:41:28.472Z,40.58
2022-08-17T15:43:57.219Z,41.15
2022-08-17T15:46:26.820Z,42.00
2022-08-17T15:49:00.339Z,42.91
2022-08-17T15:51:33.856Z,44.70
2022-08-17T15:54:18.750Z,45.88
2022-08-17T15:56:51.099Z,49.02
2022-08-17T15:59:19.565Z,51.00
2022-08-17T16:03:14.560Z,53.92
2022-08-17T16:04:37.030Z,55.19
2022-08-17T16:07:09.206Z,57.67
2022-08-17T16:09:38.700Z,59.40
2022-08-17T16:15:24.902Z,62.22
2022-08-17T16:17:53.583Z,62.46
2022-08-17T16:20:22.405Z,63.13
2022-08-17T16:22:51.525Z,63.41
2022-08-17T16:25:47.110Z,63.58
2022-08-17T16:28:15.054Z,63.08
2022-08-17T16:30:44.695Z,63.29
2022-08-17T16:33:13.807Z,63.92
2022-08-17T16:35:42.253Z,64.71
2022-08-17T16:38:11.142Z,64.11
2022-08-17T16:40:40.674Z,63.50
2022-08-17T16:43:10.825Z,63.63
2022-08-17T16:45:40.969Z,62.79
2022-08-17T16:48:10.313Z,63.54
2022-08-17T16:50:39.103Z,63.75
2022-08-17T16:53:19.611Z,63.97
2022-08-17T16:55:52.169Z,63.85
2022-08-17T16:58:20.574Z,64.56
2022-08-17T17:00:49.163Z,65.42
2022-08-17T17:03:21.979Z,65.38
2022-08-17T17:06:01.921Z,64.97
2022-08-17T17:09:00.594Z,65.63
2022-08-17T17:11:44.446Z,67.36
2022-08-17T17:14:30.868Z,67.54
2022-08-17T17:16:59.128Z,67.32
2022-08-17T17:19:38.647Z,67.80
2022-08-17T17:22:22.963Z,68.52
2022-08-17T17:25:26.972Z,68.87
2022-08-17T17:28:32.015Z,69.37
2022-08-17T17:31:16.374Z,69.94
2022-08-17T17:33:56.605Z,70.34
2022-08-17T17:36:48.371Z,70.49
2022-08-17T17:39:44.136Z,70.61
2022-08-17T17:42:19.943Z,70.63
2022-08-17T17:45:32.796Z,70.77
2022-08-17T17:48:03.044Z,71.31
2022-08-17T17:51:01.859Z,71.44
2022-08-17T17:54:05.890Z,71.33
2022-08-17T18:00:14.748Z,70.93
2022-08-17T18:02:58.060Z,70.69
2022-08-17T18:05:51.264Z,70.52
2022-08-17T18:08:34.128Z,70.35
2022-08-17T18:11:25.161Z,70.17
2022-08-17T18:14:24.253Z,69.84
2022-08-17T18:16:58.662Z,70.08
2022-08-17T18:19:31.462Z,69.88
2022-08-17T18:22:06.759Z,70.03
2022-08-17T18:24:39.078Z,69.91
2022-08-17T18:27:36.395Z,70.13
2022-08-17T18:30:13.741Z,70.13
2022-08-17T18:32:43.839Z,70.27
2022-08-17T18:35:13.634Z,70.36
2022-08-17T18:37:53.371Z,70.15
2022-08-17T18:40:30.209Z,70.09
2022-08-17T18:43:43.994Z,69.49
2022-08-17T18:46:36.207Z,69.54
2022-08-17T18:49:20.520Z,69.34
2022-08-17T18:51:48.897Z,68.75
2022-08-17T18:54:25.135Z,68.49
2022-08-17T18:56:59.283Z,68.09
2022-08-17T18:59:42.300Z,68.19
2022-08-17T19:02:27.263Z,68.12
2022-08-17T19:05:33.247Z,68.18
2022-08-17T19:08:33.782Z,67.71
2022-08-17T19:11:10.298Z,67.77
2022-08-17T19:14:10.549Z,67.81
2022-08-17T19:17:25.647Z,68.07
2022-08-17T19:20:21.686Z,67.94
2022-08-17T19:23:16.780Z,67.98
2022-08-17T19:25:50.354Z,68.09
2022-08-17T19:28:27.526Z,68.19
2022-08-17T19:31:04.132Z,68.15
2022-08-17T19:33:34.770Z,68.23
2022-08-17T19:36:44.527Z,68.46
2022-08-17T19:39:16.435Z,68.39
2022-08-17T19:41:55.031Z,68.54
2022-08-17T19:45:03.925Z,68.40
2022-08-17T19:48:04.534Z,68.41
2022-08-17T19:50:55.365Z,68.36
2022-08-17T19:53:47.435Z,68.15
2022-08-17T19:56:42.649Z,68.09
2022-08-17T19:59:49.175Z,68.12
2022-08-17T20:02:20.588Z,68.01
2022-08-17T20:04:51.272Z,68.29
2022-08-17T20:07:38.661Z,68.13
2022-08-17T20:10:57.388Z,68.28
2022-08-17T20:13:53.756Z,68.16
2022-08-17T20:16:26.790Z,68.35
2022-08-17T20:19:00.681Z,68.23
2022-08-17T20:26:12.311Z,68.18
2022-08-17T20:29:31.948Z,68.30
2022-08-17T20:36:19.751Z,68.20
2022-08-17T20:39:00.231Z,68.16
2022-08-17T20:41:29.802Z,68.01
2022-08-17T20:43:58.967Z,68.02
2022-08-17T20:46:33.438Z,67.88
2022-08-17T20:49:52.411Z,68.00
2022-08-17T20:52:57.557Z,68.15
2022-08-17T20:55:51.929Z,67.99
2022-08-17T20:58:30.884Z,68.10
2022-08-17T21:01:01.092Z,68.19
2022-08-17T21:03:50.079Z,68.24
2022-08-17T21:06:20.841Z,68.35
2022-08-17T21:08:55.384Z,68.34
2022-08-17T21:12:02.835Z,68.43
2022-08-17T21:14:37.565Z,68.78
2022-08-17T21:17:24.644Z,69.14
2022-08-17T21:20:32.328Z,68.99
2022-08-17T21:23:01.199Z,68.73
2022-08-17T21:26:03.431Z,68.56
2022-08-17T21:29:30.349Z,68.52
2022-08-17T21:32:00.660Z,68.31
2022-08-17T21:34:37.967Z,68.11
2022-08-17T21:37:42.449Z,68.13
2022-08-17T21:40:10.751Z,68.32
2022-08-17T21:43:05.443Z,68.07
2022-08-17T21:45:37.439Z,68.08
2022-08-17T21:48:07.917Z,67.92
2022-08-17T21:50:36.290Z,68.12
2022-08-17T21:53:05.865Z,67.94
2022-08-17T21:55:36.680Z,67.83
2022-08-17T21:58:28.345Z,67.86
2022-08-17T22:01:21.194Z,67.74
2022-08-17T22:04:27.282Z,67.66
2022-08-17T22:06:58.352Z,67.72
2022-08-17T22:09:31.941Z,67.59
2022-08-17T22:12:09.349Z,67.53
2022-08-17T22:14:53.003Z,67.44
2022-08-17T22:17:29.496Z,67.56
2022-08-17T22:24:18.165Z,67.71
2022-08-17T22:27:07.149Z,67.98
2022-08-17T22:29:58.152Z,68.11
2022-08-17T22:32:32.714Z,68.19
2022-08-17T22:35:39.317Z,68.03
2022-08-17T22:38:19.582Z,67.99
2022-08-17T22:41:14.105Z,68.23
2022-08-17T22:43:43.760Z,68.59
2022-08-17T22:46:15.186Z,68.65
2022-08-17T22:48:53.501Z,68.62
2022-08-17T22:51:26.447Z,68.48
2022-08-17T22:54:21.115Z,68.69
2022-08-17T22:57:21.062Z,68.91
2022-08-17T22:59:56.020Z,68.93
2022-08-17T23:02:33.042Z,68.89
2022-08-17T23:05:13.206Z,68.80
2022-08-17T23:07:43.326Z,68.51
2022-08-17T23:10:13.778Z,68.40
2022-08-17T23:12:42.632Z,68.21
2022-08-17T23:15:15.303Z,68.15
2022-08-17T23:17:49.566Z,68.00
2022-08-17T23:20:18.185Z,67.86
2022-08-17T23:22:51.812Z,67.72
2022-08-17T23:25:30.110Z,67.65
2022-08-17T23:28:01.817Z,67.72
2022-08-17T23:30:33.566Z,67.71
2022-08-17T23:33:07.723Z,67.63
2022-08-17T23:35:39.601Z,67.77
2022-08-17T23:38:11.473Z,67.93
2022-08-17T23:40:40.866Z,68.06
2022-08-17T23:43:24.138Z,68.06
2022-08-17T23:45:59.894Z,68.48
2022-08-17T23:48:36.089Z,69.11
2022-08-17T23:51:12.603Z,69.66
2022-08-17T23:54:29.568Z,70.56
2022-08-17T23:56:57.916Z,71.03
2022-08-17T23:59:27.778Z,71.73
